sensor_id;sensor_type;location;lat;lon;timestamp;P1;durP1;ratioP1;P2;durP2;ratioP2
25824;SDS011;13658;44.534;18.694;2022-11-23T00:01:26;24.35;;;12.60;;
25824;SDS011;13658;44.534;18.694;2022-11-23T00:03:57;24.05;;;12.13;;
25824;SDS011;13658;44.534;18.694;2022-11-23T00:06:29;22.67;;;12.20;;
25824;SDS011;13658;44.534;18.694;2022-11-23T00:08:55;19.15;;;10.32;;
25824;SDS011;13658;44.534;18.694;2022-11-23T00:11:23;23.05;;;11.77;;
25824;SDS011;13658;44.534;18.694;2022-11-23T00:13:50;32.90;;;17.02;;
25824;SDS011;13658;44.534;18.694;2022-11-23T00:16:20;37.70;;;18.23;;
25824;SDS011;13658;44.534;18.694;2022-11-23T00:18:51;28.63;;;15.70;;
25824;SDS011;13658;44.534;18.694;2022-11-23T00:21:19;26.40;;;14.20;;
25824;SDS011;13658;44.534;18.694;2022-11-23T00:23:46;26.60;;;13.85;;
25824;SDS011;13658;44.534;18.694;2022-11-23T00:26:12;34.88;;;17.70;;
25824;SDS011;13658;44.534;18.694;2022-11-23T00:28:40;34.28;;;17.60;;
25824;SDS011;13658;44.534;18.694;2022-11-23T00:31:17;33.40;;;17.30;;
25824;SDS011;13658;44.534;18.694;2022-11-23T00:33:51;35.13;;;18.73;;
25824;SDS011;13658;44.534;18.694;2022-11-23T00:36:19;34.70;;;17.98;;
25824;SDS011;13658;44.534;18.694;2022-11-23T00:38:46;34.28;;;17.40;;
25824;SDS011;13658;44.534;18.694;2022-11-23T00:41:13;30.90;;;16.65;;
25824;SDS011;13658;44.534;18.694;2022-11-23T00:43:44;26.27;;;14.60;;
25824;SDS011;13658;44.534;18.694;2022-11-23T00:48:45;34.28;;;17.30;;
25824;SDS011;13658;44.534;18.694;2022-11-23T00:51:15;26.15;;;15.18;;
25824;SDS011;13658;44.534;18.694;2022-11-23T00:53:43;27.98;;;13.38;;
25824;SDS011;13658;44.534;18.694;2022-11-23T00:56:09;22.25;;;11.88;;
25824;SDS011;13658;44.534;18.694;2022-11-23T00:58:36;26.23;;;12.77;;
25824;SDS011;13658;44.534;18.694;2022-11-23T01:01:06;39.58;;;21.20;;
25824;SDS011;13658;44.534;18.694;2022-11-23T01:03:34;31.35;;;18.25;;
25824;SDS011;13658;44.534;18.694;2022-11-23T01:06:02;41.08;;;20.80;;
25824;SDS011;13658;44.534;18.694;2022-11-23T01:08:29;37.85;;;20.83;;
25824;SDS011;13658;44.534;18.694;2022-11-23T01:10:58;36.15;;;21.13;;
25824;SDS011;13658;44.534;18.694;2022-11-23T01:13:28;35.70;;;19.23;;
25824;SDS011;13658;44.534;18.694;2022-11-23T01:15:55;33.58;;;19.05;;
25824;SDS011;13658;44.534;18.694;2022-11-23T01:18:21;30.25;;;16.05;;
25824;SDS011;13658;44.534;18.694;2022-11-23T01:20:47;25.67;;;14.75;;
25824;SDS011;13658;44.534;18.694;2022-11-23T01:23:14;24.25;;;13.45;;
25824;SDS011;13658;44.534;18.694;2022-11-23T01:25:40;20.70;;;10.85;;
25824;SDS011;13658;44.534;18.694;2022-11-23T01:28:06;22.75;;;11.40;;
25824;SDS011;13658;44.534;18.694;2022-11-23T01:30:32;20.67;;;11.00;;
25824;SDS011;13658;44.534;18.694;2022-11-23T01:33:01;22.13;;;11.70;;
25824;SDS011;13658;44.534;18.694;2022-11-23T01:35:27;21.48;;;11.52;;
25824;SDS011;13658;44.534;18.694;2022-11-23T01:37:54;23.33;;;11.13;;
25824;SDS011;13658;44.534;18.694;2022-11-23T01:40:20;22.27;;;11.77;;
25824;SDS011;13658;44.534;18.694;2022-11-23T01:45:26;22.70;;;11.63;;
25824;SDS011;13658;44.534;18.694;2022-11-23T01:47:58;22.13;;;10.75;;
25824;SDS011;13658;44.534;18.694;2022-11-23T01:50:24;21.35;;;11.75;;
25824;SDS011;13658;44.534;18.694;2022-11-23T01:52:50;22.65;;;11.80;;
25824;SDS011;13658;44.534;18.694;2022-11-23T01:55:17;23.42;;;11.85;;
25824;SDS011;13658;44.534;18.694;2022-11-23T01:57:43;24.17;;;12.18;;
25824;SDS011;13658;44.534;18.694;2022-11-23T02:00:10;23.23;;;13.18;;
25824;SDS011;13658;44.534;18.694;2022-11-23T02:02:44;21.88;;;12.63;;
25824;SDS011;13658;44.534;18.694;2022-11-23T02:05:15;28.30;;;13.30;;
25824;SDS011;13658;44.534;18.694;2022-11-23T02:07:46;26.02;;;13.63;;
25824;SDS011;13658;44.534;18.694;2022-11-23T02:10:13;27.88;;;14.13;;
25824;SDS011;13658;44.534;18.694;2022-11-23T02:12:40;27.17;;;14.02;;
25824;SDS011;13658;44.534;18.694;2022-11-23T02:15:06;28.38;;;14.95;;
25824;SDS011;13658;44.534;18.694;2022-11-23T02:17:32;29.83;;;14.95;;
25824;SDS011;13658;44.534;18.694;2022-11-23T02:20:03;26.92;;;14.38;;
25824;SDS011;13658;44.534;18.694;2022-11-23T02:28:53;31.30;;;15.52;;
25824;SDS011;13658;44.534;18.694;2022-11-23T02:31:10;31.58;;;16.00;;
25824;SDS011;13658;44.534;18.694;2022-11-23T02:33:36;29.17;;;15.63;;
25824;SDS011;13658;44.534;18.694;2022-11-23T02:38:57;34.40;;;17.63;;
25824;SDS011;13658;44.534;18.694;2022-11-23T02:41:26;35.67;;;17.50;;
25824;SDS011;13658;44.534;18.694;2022-11-23T02:43:53;43.22;;;19.45;;
25824;SDS011;13658;44.534;18.694;2022-11-23T02:46:23;39.65;;;20.25;;
25824;SDS011;13658;44.534;18.694;2022-11-23T02:48:49;36.10;;;19.15;;
25824;SDS011;13658;44.534;18.694;2022-11-23T02:51:15;36.97;;;18.65;;
25824;SDS011;13658;44.534;18.694;2022-11-23T02:53:40;36.70;;;19.05;;
25824;SDS011;13658;44.534;18.694;2022-11-23T02:56:08;37.67;;;19.33;;
25824;SDS011;13658;44.534;18.694;2022-11-23T02:58:34;38.03;;;18.80;;
25824;SDS011;13658;44.534;18.694;2022-11-23T03:01:03;40.17;;;19.90;;
25824;SDS011;13658;44.534;18.694;2022-11-23T03:03:29;37.17;;;18.85;;
25824;SDS011;13658;44.534;18.694;2022-11-23T03:05:55;36.92;;;19.30;;
25824;SDS011;13658;44.534;18.694;2022-11-23T03:08:22;40.45;;;19.50;;
25824;SDS011;13658;44.534;18.694;2022-11-23T03:10:48;39.60;;;20.02;;
25824;SDS011;13658;44.534;18.694;2022-11-23T03:13:14;38.55;;;20.80;;
25824;SDS011;13658;44.534;18.694;2022-11-23T03:15:40;37.83;;;19.27;;
25824;SDS011;13658;44.534;18.694;2022-11-23T03:18:07;41.65;;;20.98;;
25824;SDS011;13658;44.534;18.694;2022-11-23T03:20:34;39.22;;;20.63;;
25824;SDS011;13658;44.534;18.694;2022-11-23T03:23:00;43.38;;;22.38;;
25824;SDS011;13658;44.534;18.694;2022-11-23T03:25:26;43.70;;;22.00;;
25824;SDS011;13658;44.534;18.694;2022-11-23T03:27:54;41.13;;;22.35;;
25824;SDS011;13658;44.534;18.694;2022-11-23T03:30:20;42.38;;;22.67;;
25824;SDS011;13658;44.534;18.694;2022-11-23T03:32:47;43.30;;;22.20;;
25824;SDS011;13658;44.534;18.694;2022-11-23T03:35:13;45.78;;;23.23;;
25824;SDS011;13658;44.534;18.694;2022-11-23T03:37:58;43.42;;;22.23;;
25824;SDS011;13658;44.534;18.694;2022-11-23T03:40:24;42.78;;;23.20;;
25824;SDS011;13658;44.534;18.694;2022-11-23T03:43:16;38.45;;;22.65;;
25824;SDS011;13658;44.534;18.694;2022-11-23T03:45:44;43.17;;;24.42;;
25824;SDS011;13658;44.534;18.694;2022-11-23T03:48:13;46.72;;;24.40;;
25824;SDS011;13658;44.534;18.694;2022-11-23T03:50:39;42.78;;;24.92;;
25824;SDS011;13658;44.534;18.694;2022-11-23T03:53:05;44.38;;;24.90;;
25824;SDS011;13658;44.534;18.694;2022-11-23T03:55:32;41.55;;;23.73;;
25824;SDS011;13658;44.534;18.694;2022-11-23T03:57:59;44.90;;;24.95;;
25824;SDS011;13658;44.534;18.694;2022-11-23T04:00:28;49.30;;;28.13;;
25824;SDS011;13658;44.534;18.694;2022-11-23T04:02:56;48.75;;;27.30;;
25824;SDS011;13658;44.534;18.694;2022-11-23T04:05:41;46.30;;;25.75;;
25824;SDS011;13658;44.534;18.694;2022-11-23T04:08:25;43.13;;;25.13;;
25824;SDS011;13658;44.534;18.694;2022-11-23T04:10:57;44.67;;;24.92;;
25824;SDS011;13658;44.534;18.694;2022-11-23T04:13:34;48.85;;;25.90;;
25824;SDS011;13658;44.534;18.694;2022-11-23T04:16:01;44.30;;;25.10;;
25824;SDS011;13658;44.534;18.694;2022-11-23T04:18:26;46.20;;;26.83;;
25824;SDS011;13658;44.534;18.694;2022-11-23T04:20:53;48.72;;;27.08;;
25824;SDS011;13658;44.534;18.694;2022-11-23T04:23:18;49.03;;;26.88;;
25824;SDS011;13658;44.534;18.694;2022-11-23T04:25:47;60.55;;;36.30;;
25824;SDS011;13658;44.534;18.694;2022-11-23T04:28:13;55.50;;;30.52;;
25824;SDS011;13658;44.534;18.694;2022-11-23T04:30:40;53.17;;;29.65;;
25824;SDS011;13658;44.534;18.694;2022-11-23T04:33:06;52.78;;;27.90;;
25824;SDS011;13658;44.534;18.694;2022-11-23T04:35:32;50.92;;;30.05;;
25824;SDS011;13658;44.534;18.694;2022-11-23T04:37:59;48.72;;;28.05;;
25824;SDS011;13658;44.534;18.694;2022-11-23T04:40:27;47.08;;;27.05;;
25824;SDS011;13658;44.534;18.694;2022-11-23T04:42:59;60.97;;;32.65;;
25824;SDS011;13658;44.534;18.694;2022-11-23T04:45:25;42.85;;;26.55;;
25824;SDS011;13658;44.534;18.694;2022-11-23T04:47:53;47.65;;;27.55;;
25824;SDS011;13658;44.534;18.694;2022-11-23T04:50:22;46.67;;;25.38;;
25824;SDS011;13658;44.534;18.694;2022-11-23T04:52:53;48.67;;;26.90;;
25824;SDS011;13658;44.534;18.694;2022-11-23T04:55:24;44.65;;;26.70;;
25824;SDS011;13658;44.534;18.694;2022-11-23T04:57:55;45.30;;;25.60;;
25824;SDS011;13658;44.534;18.694;2022-11-23T05:00:24;42.55;;;25.55;;
25824;SDS011;13658;44.534;18.694;2022-11-23T05:02:53;42.97;;;24.88;;
25824;SDS011;13658;44.534;18.694;2022-11-23T05:05:23;39.67;;;23.48;;
25824;SDS011;13658;44.534;18.694;2022-11-23T05:07:49;40.58;;;23.50;;
25824;SDS011;13658;44.534;18.694;2022-11-23T05:10:17;49.83;;;25.67;;
25824;SDS011;13658;44.534;18.694;2022-11-23T05:12:45;46.25;;;24.80;;
25824;SDS011;13658;44.534;18.694;2022-11-23T05:15:11;47.53;;;24.50;;
25824;SDS011;13658;44.534;18.694;2022-11-23T05:17:43;39.70;;;22.73;;
25824;SDS011;13658;44.534;18.694;2022-11-23T05:20:15;40.08;;;23.33;;
25824;SDS011;13658;44.534;18.694;2022-11-23T05:22:46;38.55;;;23.08;;
25824;SDS011;13658;44.534;18.694;2022-11-23T05:25:15;37.15;;;20.40;;
25824;SDS011;13658;44.534;18.694;2022-11-23T05:27:42;39.28;;;21.10;;
25824;SDS011;13658;44.534;18.694;2022-11-23T05:30:08;36.47;;;21.17;;
25824;SDS011;13658;44.534;18.694;2022-11-23T05:32:35;35.55;;;21.17;;
25824;SDS011;13658;44.534;18.694;2022-11-23T05:35:01;35.03;;;20.80;;
25824;SDS011;13658;44.534;18.694;2022-11-23T05:37:29;39.55;;;20.90;;
25824;SDS011;13658;44.534;18.694;2022-11-23T05:39:59;41.50;;;20.63;;
25824;SDS011;13658;44.534;18.694;2022-11-23T05:42:28;32.28;;;20.00;;
25824;SDS011;13658;44.534;18.694;2022-11-23T05:44:58;29.70;;;18.50;;
25824;SDS011;13658;44.534;18.694;2022-11-23T05:47:33;35.03;;;19.92;;
25824;SDS011;13658;44.534;18.694;2022-11-23T05:50:03;29.38;;;19.08;;
25824;SDS011;13658;44.534;18.694;2022-11-23T05:52:30;30.13;;;17.67;;
25824;SDS011;13658;44.534;18.694;2022-11-23T05:54:56;30.35;;;16.63;;
25824;SDS011;13658;44.534;18.694;2022-11-23T05:57:22;24.30;;;17.27;;
25824;SDS011;13658;44.534;18.694;2022-11-23T05:59:49;27.05;;;17.00;;
25824;SDS011;13658;44.534;18.694;2022-11-23T06:02:19;24.02;;;15.48;;
25824;SDS011;13658;44.534;18.694;2022-11-23T06:04:48;25.38;;;15.15;;
25824;SDS011;13658;44.534;18.694;2022-11-23T06:07:19;23.88;;;14.60;;
25824;SDS011;13658;44.534;18.694;2022-11-23T06:10:00;22.95;;;14.73;;
25824;SDS011;13658;44.534;18.694;2022-11-23T06:12:28;23.73;;;15.57;;
25824;SDS011;13658;44.534;18.694;2022-11-23T06:14:56;30.85;;;17.48;;
25824;SDS011;13658;44.534;18.694;2022-11-23T06:17:24;29.45;;;16.80;;
25824;SDS011;13658;44.534;18.694;2022-11-23T06:19:53;32.55;;;18.00;;
25824;SDS011;13658;44.534;18.694;2022-11-23T06:22:40;32.60;;;19.65;;
25824;SDS011;13658;44.534;18.694;2022-11-23T06:25:07;32.47;;;19.42;;
25824;SDS011;13658;44.534;18.694;2022-11-23T06:30:43;28.27;;;15.88;;
25824;SDS011;13658;44.534;18.694;2022-11-23T06:33:11;30.98;;;16.40;;
25824;SDS011;13658;44.534;18.694;2022-11-23T06:35:56;25.08;;;14.18;;
25824;SDS011;13658;44.534;18.694;2022-11-23T06:38:33;24.85;;;12.82;;
25824;SDS011;13658;44.534;18.694;2022-11-23T06:41:03;22.02;;;13.30;;
25824;SDS011;13658;44.534;18.694;2022-11-23T06:43:30;19.88;;;12.13;;
25824;SDS011;13658;44.534;18.694;2022-11-23T06:45:58;21.48;;;13.43;;
25824;SDS011;13658;44.534;18.694;2022-11-23T06:48:28;17.90;;;11.43;;
25824;SDS011;13658;44.534;18.694;2022-11-23T06:50:59;17.45;;;11.77;;
25824;SDS011;13658;44.534;18.694;2022-11-23T06:53:28;19.50;;;10.88;;
25824;SDS011;13658;44.534;18.694;2022-11-23T06:55:59;14.25;;;10.18;;
25824;SDS011;13658;44.534;18.694;2022-11-23T06:58:26;16.05;;;11.20;;
25824;SDS011;13658;44.534;18.694;2022-11-23T07:00:52;20.48;;;10.45;;
25824;SDS011;13658;44.534;18.694;2022-11-23T07:03:20;19.10;;;11.02;;
25824;SDS011;13658;44.534;18.694;2022-11-23T07:05:53;16.10;;;10.07;;
25824;SDS011;13658;44.534;18.694;2022-11-23T07:08:23;19.23;;;10.63;;
25824;SDS011;13658;44.534;18.694;2022-11-23T07:10:52;16.38;;;9.32;;
25824;SDS011;13658;44.534;18.694;2022-11-23T07:13:18;13.57;;;8.75;;
25824;SDS011;13658;44.534;18.694;2022-11-23T07:15:44;13.20;;;8.50;;
25824;SDS011;13658;44.534;18.694;2022-11-23T07:18:11;21.90;;;12.73;;
25824;SDS011;13658;44.534;18.694;2022-11-23T07:20:41;10.68;;;8.38;;
25824;SDS011;13658;44.534;18.694;2022-11-23T07:23:09;13.63;;;8.80;;
25824;SDS011;13658;44.534;18.694;2022-11-23T07:25:38;20.08;;;9.70;;
25824;SDS011;13658;44.534;18.694;2022-11-23T07:28:05;15.35;;;8.23;;
25824;SDS011;13658;44.534;18.694;2022-11-23T07:30:33;12.45;;;7.03;;
25824;SDS011;13658;44.534;18.694;2022-11-23T07:33:01;15.18;;;7.28;;
25824;SDS011;13658;44.534;18.694;2022-11-23T07:35:29;11.65;;;6.90;;
25824;SDS011;13658;44.534;18.694;2022-11-23T07:37:57;20.08;;;9.27;;
25824;SDS011;13658;44.534;18.694;2022-11-23T07:40:24;10.35;;;6.25;;
25824;SDS011;13658;44.534;18.694;2022-11-23T07:42:51;14.77;;;9.52;;
25824;SDS011;13658;44.534;18.694;2022-11-23T07:45:17;12.65;;;7.70;;
25824;SDS011;13658;44.534;18.694;2022-11-23T07:47:47;12.38;;;6.28;;
25824;SDS011;13658;44.534;18.694;2022-11-23T07:50:21;12.15;;;6.05;;
25824;SDS011;13658;44.534;18.694;2022-11-23T07:52:47;16.02;;;7.55;;
25824;SDS011;13658;44.534;18.694;2022-11-23T07:55:13;20.33;;;8.90;;
25824;SDS011;13658;44.534;18.694;2022-11-23T07:57:39;26.13;;;10.40;;
25824;SDS011;13658;44.534;18.694;2022-11-23T08:00:05;17.60;;;10.25;;
25824;SDS011;13658;44.534;18.694;2022-11-23T08:02:37;25.23;;;15.05;;
25824;SDS011;13658;44.534;18.694;2022-11-23T08:05:03;18.90;;;11.63;;
25824;SDS011;13658;44.534;18.694;2022-11-23T08:07:30;18.67;;;10.27;;
25824;SDS011;13658;44.534;18.694;2022-11-23T08:09:56;15.20;;;9.10;;
25824;SDS011;13658;44.534;18.694;2022-11-23T08:12:22;10.25;;;6.07;;
25824;SDS011;13658;44.534;18.694;2022-11-23T08:14:48;9.63;;;6.10;;
25824;SDS011;13658;44.534;18.694;2022-11-23T08:17:13;13.70;;;7.47;;
25824;SDS011;13658;44.534;18.694;2022-11-23T08:19:39;15.50;;;6.97;;
25824;SDS011;13658;44.534;18.694;2022-11-23T08:22:05;15.57;;;6.93;;
25824;SDS011;13658;44.534;18.694;2022-11-23T08:24:31;12.07;;;6.30;;
25824;SDS011;13658;44.534;18.694;2022-11-23T08:26:57;11.05;;;6.80;;
25824;SDS011;13658;44.534;18.694;2022-11-23T08:29:23;9.55;;;5.43;;
25824;SDS011;13658;44.534;18.694;2022-11-23T08:31:49;7.25;;;4.15;;
25824;SDS011;13658;44.534;18.694;2022-11-23T08:34:16;13.00;;;5.90;;
25824;SDS011;13658;44.534;18.694;2022-11-23T08:36:43;13.93;;;6.78;;
25824;SDS011;13658;44.534;18.694;2022-11-23T08:39:10;11.82;;;7.03;;
25824;SDS011;13658;44.534;18.694;2022-11-23T08:41:36;8.50;;;5.38;;
25824;SDS011;13658;44.534;18.694;2022-11-23T08:44:03;12.43;;;6.18;;
25824;SDS011;13658;44.534;18.694;2022-11-23T08:46:29;11.68;;;4.88;;
25824;SDS011;13658;44.534;18.694;2022-11-23T08:48:55;20.90;;;11.45;;
25824;SDS011;13658;44.534;18.694;2022-11-23T08:51:21;14.32;;;7.40;;
25824;SDS011;13658;44.534;18.694;2022-11-23T08:53:48;33.25;;;19.02;;
25824;SDS011;13658;44.534;18.694;2022-11-23T08:56:14;16.67;;;7.82;;
25824;SDS011;13658;44.534;18.694;2022-11-23T08:58:40;19.65;;;8.88;;
25824;SDS011;13658;44.534;18.694;2022-11-23T09:01:10;13.02;;;7.63;;
25824;SDS011;13658;44.534;18.694;2022-11-23T09:03:37;11.70;;;6.53;;
25824;SDS011;13658;44.534;18.694;2022-11-23T09:06:03;9.27;;;5.80;;
25824;SDS011;13658;44.534;18.694;2022-11-23T09:08:30;10.45;;;5.72;;
25824;SDS011;13658;44.534;18.694;2022-11-23T09:11:03;13.90;;;6.22;;
25824;SDS011;13658;44.534;18.694;2022-11-23T09:13:31;11.23;;;5.13;;
25824;SDS011;13658;44.534;18.694;2022-11-23T09:15:59;13.02;;;6.72;;
25824;SDS011;13658;44.534;18.694;2022-11-23T09:18:26;20.10;;;12.40;;
25824;SDS011;13658;44.534;18.694;2022-11-23T09:20:54;11.45;;;5.22;;
25824;SDS011;13658;44.534;18.694;2022-11-23T09:23:24;9.20;;;5.47;;
25824;SDS011;13658;44.534;18.694;2022-11-23T09:25:51;7.05;;;4.65;;
25824;SDS011;13658;44.534;18.694;2022-11-23T09:28:17;12.10;;;6.57;;
25824;SDS011;13658;44.534;18.694;2022-11-23T09:30:48;13.85;;;7.63;;
25824;SDS011;13658;44.534;18.694;2022-11-23T09:33:14;28.95;;;13.98;;
25824;SDS011;13658;44.534;18.694;2022-11-23T09:35:40;13.93;;;7.72;;
25824;SDS011;13658;44.534;18.694;2022-11-23T09:38:06;20.85;;;8.32;;
25824;SDS011;13658;44.534;18.694;2022-11-23T09:40:33;15.25;;;6.72;;
25824;SDS011;13658;44.534;18.694;2022-11-23T09:45:50;12.95;;;6.57;;
25824;SDS011;13658;44.534;18.694;2022-11-23T09:48:27;12.07;;;6.18;;
25824;SDS011;13658;44.534;18.694;2022-11-23T09:51:03;11.80;;;5.88;;
25824;SDS011;13658;44.534;18.694;2022-11-23T09:53:45;8.50;;;4.30;;
25824;SDS011;13658;44.534;18.694;2022-11-23T09:56:18;13.13;;;7.10;;
25824;SDS011;13658;44.534;18.694;2022-11-23T09:59:10;12.32;;;5.93;;
25824;SDS011;13658;44.534;18.694;2022-11-23T10:01:44;14.93;;;9.65;;
25824;SDS011;13658;44.534;18.694;2022-11-23T10:04:16;11.50;;;5.43;;
25824;SDS011;13658;44.534;18.694;2022-11-23T10:06:44;14.68;;;7.00;;
25824;SDS011;13658;44.534;18.694;2022-11-23T10:09:32;10.18;;;4.85;;
25824;SDS011;13658;44.534;18.694;2022-11-23T10:21:26;12.10;;;6.30;;
25824;SDS011;13658;44.534;18.694;2022-11-23T10:23:54;16.80;;;7.85;;
25824;SDS011;13658;44.534;18.694;2022-11-23T10:26:35;8.07;;;4.38;;
25824;SDS011;13658;44.534;18.694;2022-11-23T10:29:16;7.95;;;4.50;;
25824;SDS011;13658;44.534;18.694;2022-11-23T10:31:55;8.82;;;4.63;;
25824;SDS011;13658;44.534;18.694;2022-11-23T10:34:25;7.82;;;4.10;;
25824;SDS011;13658;44.534;18.694;2022-11-23T10:37:12;14.20;;;7.03;;
25824;SDS011;13658;44.534;18.694;2022-11-23T10:39:40;11.57;;;5.40;;
25824;SDS011;13658;44.534;18.694;2022-11-23T10:42:28;8.82;;;4.82;;
25824;SDS011;13658;44.534;18.694;2022-11-23T10:45:00;18.67;;;7.28;;
25824;SDS011;13658;44.534;18.694;2022-11-23T10:47:47;15.30;;;8.13;;
25824;SDS011;13658;44.534;18.694;2022-11-23T10:50:26;13.50;;;7.10;;
25824;SDS011;13658;44.534;18.694;2022-11-23T10:55:45;13.75;;;7.15;;
25824;SDS011;13658;44.534;18.694;2022-11-23T10:58:26;10.07;;;5.07;;
25824;SDS011;13658;44.534;18.694;2022-11-23T11:01:02;8.63;;;4.65;;
25824;SDS011;13658;44.534;18.694;2022-11-23T11:03:37;14.38;;;7.30;;
25824;SDS011;13658;44.534;18.694;2022-11-23T11:06:02;8.63;;;4.88;;
25824;SDS011;13658;44.534;18.694;2022-11-23T11:08:29;37.17;;;17.05;;
25824;SDS011;13658;44.534;18.694;2022-11-23T11:11:01;14.73;;;6.75;;
25824;SDS011;13658;44.534;18.694;2022-11-23T11:18:55;11.48;;;6.03;;
25824;SDS011;13658;44.534;18.694;2022-11-23T11:21:22;11.38;;;5.30;;
25824;SDS011;13658;44.534;18.694;2022-11-23T11:23:58;21.23;;;11.35;;
25824;SDS011;13658;44.534;18.694;2022-11-23T11:26:27;20.50;;;9.38;;
25824;SDS011;13658;44.534;18.694;2022-11-23T11:29:04;17.08;;;8.55;;
25824;SDS011;13658;44.534;18.694;2022-11-23T11:31:46;19.63;;;9.50;;
25824;SDS011;13658;44.534;18.694;2022-11-23T11:39:52;16.50;;;7.53;;
25824;SDS011;13658;44.534;18.694;2022-11-23T11:42:42;10.30;;;4.75;;
25824;SDS011;13658;44.534;18.694;2022-11-23T11:45:32;9.70;;;5.05;;
25824;SDS011;13658;44.534;18.694;2022-11-23T11:48:17;5.97;;;3.90;;
25824;SDS011;13658;44.534;18.694;2022-11-23T11:50:56;10.90;;;4.38;;
25824;SDS011;13658;44.534;18.694;2022-11-23T11:53:34;11.02;;;4.07;;
25824;SDS011;13658;44.534;18.694;2022-11-23T11:59:27;8.68;;;4.50;;
25824;SDS011;13658;44.534;18.694;2022-11-23T12:01:56;11.05;;;5.43;;
25824;SDS011;13658;44.534;18.694;2022-11-23T12:04:42;12.40;;;5.72;;
25824;SDS011;13658;44.534;18.694;2022-11-23T12:09:48;7.95;;;4.40;;
25824;SDS011;13658;44.534;18.694;2022-11-23T12:12:17;5.47;;;2.97;;
25824;SDS011;13658;44.534;18.694;2022-11-23T12:14:46;7.38;;;3.60;;
25824;SDS011;13658;44.534;18.694;2022-11-23T12:17:31;7.35;;;3.70;;
25824;SDS011;13658;44.534;18.694;2022-11-23T12:20:29;6.55;;;4.05;;
25824;SDS011;13658;44.534;18.694;2022-11-23T12:26:14;12.25;;;7.45;;
25824;SDS011;13658;44.534;18.694;2022-11-23T12:29:15;10.07;;;5.53;;
25824;SDS011;13658;44.534;18.694;2022-11-23T12:31:48;12.18;;;4.88;;
25824;SDS011;13658;44.534;18.694;2022-11-23T12:34:23;11.00;;;5.93;;
25824;SDS011;13658;44.534;18.694;2022-11-23T12:39:56;10.93;;;4.88;;
25824;SDS011;13658;44.534;18.694;2022-11-23T12:45:25;11.40;;;6.15;;
25824;SDS011;13658;44.534;18.694;2022-11-23T12:51:13;13.70;;;7.45;;
25824;SDS011;13658;44.534;18.694;2022-11-23T12:56:48;17.75;;;6.65;;
25824;SDS011;13658;44.534;18.694;2022-11-23T12:59:18;14.02;;;7.35;;
25824;SDS011;13658;44.534;18.694;2022-11-23T13:01:47;12.90;;;6.65;;
25824;SDS011;13658;44.534;18.694;2022-11-23T13:12:37;8.00;;;5.00;;
25824;SDS011;13658;44.534;18.694;2022-11-23T13:23:37;15.20;;;8.40;;
25824;SDS011;13658;44.534;18.694;2022-11-23T13:26:16;19.10;;;9.02;;
25824;SDS011;13658;44.534;18.694;2022-11-23T13:28:47;15.63;;;6.50;;
25824;SDS011;13658;44.534;18.694;2022-11-23T13:31:19;13.63;;;6.88;;
25824;SDS011;13658;44.534;18.694;2022-11-23T13:33:48;12.15;;;5.80;;
25824;SDS011;13658;44.534;18.694;2022-11-23T13:38:55;8.50;;;4.70;;
25824;SDS011;13658;44.534;18.694;2022-11-23T13:44:18;9.00;;;5.03;;
25824;SDS011;13658;44.534;18.694;2022-11-23T13:49:30;9.55;;;5.07;;
25824;SDS011;13658;44.534;18.694;2022-11-23T13:57:39;12.65;;;5.55;;
25824;SDS011;13658;44.534;18.694;2022-11-23T14:17:23;11.90;;;6.80;;
25824;SDS011;13658;44.534;18.694;2022-11-23T14:42:24;13.10;;;7.35;;
25824;SDS011;13658;44.534;18.694;2022-11-23T14:44:52;13.20;;;6.57;;
25824;SDS011;13658;44.534;18.694;2022-11-23T14:47:24;14.82;;;7.00;;
25824;SDS011;13658;44.534;18.694;2022-11-23T14:49:51;8.57;;;4.68;;
25824;SDS011;13658;44.534;18.694;2022-11-23T14:52:18;11.65;;;6.43;;
25824;SDS011;13658;44.534;18.694;2022-11-23T14:54:51;18.77;;;8.90;;
25824;SDS011;13658;44.534;18.694;2022-11-23T14:57:19;12.02;;;5.70;;
25824;SDS011;13658;44.534;18.694;2022-11-23T14:59:49;9.88;;;5.60;;
25824;SDS011;13658;44.534;18.694;2022-11-23T15:02:40;12.90;;;6.57;;
25824;SDS011;13658;44.534;18.694;2022-11-23T15:05:38;21.73;;;10.43;;
25824;SDS011;13658;44.534;18.694;2022-11-23T15:11:19;15.43;;;7.75;;
25824;SDS011;13658;44.534;18.694;2022-11-23T15:13:49;18.17;;;7.65;;
25824;SDS011;13658;44.534;18.694;2022-11-23T15:16:18;15.55;;;7.93;;
25824;SDS011;13658;44.534;18.694;2022-11-23T15:18:45;18.75;;;9.48;;
25824;SDS011;13658;44.534;18.694;2022-11-23T15:21:18;15.43;;;8.23;;
25824;SDS011;13658;44.534;18.694;2022-11-23T15:23:48;11.55;;;5.95;;
25824;SDS011;13658;44.534;18.694;2022-11-23T15:26:21;12.50;;;6.63;;
25824;SDS011;13658;44.534;18.694;2022-11-23T15:28:50;13.25;;;8.30;;
25824;SDS011;13658;44.534;18.694;2022-11-23T15:34:02;11.02;;;6.45;;
25824;SDS011;13658;44.534;18.694;2022-11-23T15:36:35;15.48;;;7.10;;
25824;SDS011;13658;44.534;18.694;2022-11-23T15:39:02;12.43;;;6.90;;
25824;SDS011;13658;44.534;18.694;2022-11-23T15:41:32;11.25;;;6.75;;
25824;SDS011;13658;44.534;18.694;2022-11-23T15:44:14;11.10;;;6.43;;
25824;SDS011;13658;44.534;18.694;2022-11-23T15:46:44;14.27;;;7.15;;
25824;SDS011;13658;44.534;18.694;2022-11-23T15:49:13;12.52;;;6.70;;
25824;SDS011;13658;44.534;18.694;2022-11-23T15:51:41;13.45;;;7.22;;
25824;SDS011;13658;44.534;18.694;2022-11-23T15:54:21;13.88;;;8.57;;
25824;SDS011;13658;44.534;18.694;2022-11-23T15:56:51;8.32;;;5.15;;
25824;SDS011;13658;44.534;18.694;2022-11-23T16:04:46;18.17;;;7.82;;
25824;SDS011;13658;44.534;18.694;2022-11-23T16:09:49;10.07;;;6.00;;
25824;SDS011;13658;44.534;18.694;2022-11-23T16:12:45;17.67;;;6.47;;
25824;SDS011;13658;44.534;18.694;2022-11-23T16:18:13;9.75;;;5.70;;
25824;SDS011;13658;44.534;18.694;2022-11-23T16:20:46;13.85;;;6.20;;
25824;SDS011;13658;44.534;18.694;2022-11-23T16:23:20;12.15;;;6.20;;
25824;SDS011;13658;44.534;18.694;2022-11-23T16:26:27;18.83;;;9.27;;
25824;SDS011;13658;44.534;18.694;2022-11-23T16:28:58;11.60;;;6.97;;
25824;SDS011;13658;44.534;18.694;2022-11-23T16:31:26;12.20;;;6.47;;
25824;SDS011;13658;44.534;18.694;2022-11-23T16:33:53;11.52;;;6.20;;
25824;SDS011;13658;44.534;18.694;2022-11-23T16:36:20;11.02;;;5.90;;
25824;SDS011;13658;44.534;18.694;2022-11-23T16:38:46;12.80;;;6.43;;
25824;SDS011;13658;44.534;18.694;2022-11-23T16:41:12;10.32;;;5.63;;
25824;SDS011;13658;44.534;18.694;2022-11-23T16:43:38;10.25;;;5.47;;
25824;SDS011;13658;44.534;18.694;2022-11-23T16:46:04;9.02;;;4.82;;
25824;SDS011;13658;44.534;18.694;2022-11-23T16:48:37;9.88;;;5.75;;
25824;SDS011;13658;44.534;18.694;2022-11-23T16:51:04;11.10;;;6.15;;
25824;SDS011;13658;44.534;18.694;2022-11-23T16:53:31;10.90;;;6.53;;
25824;SDS011;13658;44.534;18.694;2022-11-23T16:55:59;12.23;;;6.95;;
25824;SDS011;13658;44.534;18.694;2022-11-23T16:58:29;12.07;;;6.88;;
25824;SDS011;13658;44.534;18.694;2022-11-23T17:00:59;12.20;;;6.28;;
25824;SDS011;13658;44.534;18.694;2022-11-23T17:03:28;10.93;;;5.70;;
25824;SDS011;13658;44.534;18.694;2022-11-23T17:05:54;11.27;;;7.22;;